Time;durP1;ratioP1;P1;durP2;ratioP2;P2;SDS_P1;SDS_P2;PMS_P1;PMS_P2;Temp;Humidity;BMP_temperature;BMP_pressure;BME280_temperature;BME280_humidity;BME280_pressure;Samples;Min_cycle;Max_cycle;Signal;HPM_P1;HPM_P2
2023/04/02 00:00:14;;;;;;;11.83;3.80;;;2.30;73.40;;;;;;5104849;28;20044;-74
2023/04/02 00:02:48;;;;;;;11.00;4.20;;;2.20;73.20;;;;;;5111141;27;20514;-74
2023/04/02 00:05:19;;;;;;;11.83;3.87;;;2.20;73.50;;;;;;5131711;27;20083;-74
2023/04/02 00:07:49;;;;;;;;;;;2.10;73.50;;;;;;5111087;27;20058;-73
2023/04/02 00:10:38;;;;;;;11.60;4.60;;;2.00;73.00;;;;;;5111848;28;19920;-74
2023/04/02 00:13:10;;;;;;;10.77;3.70;;;2.00;73.60;;;;;;5111688;28;20481;-74
2023/04/02 00:15:42;;;;;;;13.93;4.60;;;1.90;73.70;;;;;;5112133;28;20471;-74
2023/04/02 00:18:13;;;;;;;;;;;1.90;73.60;;;;;;5096219;28;20082;-74
2023/04/02 00:20:42;;;;;;;9.45;3.83;;;1.80;73.30;;;;;;5110811;28;19943;-74
2023/04/02 00:23:12;;;;;;;7.63;3.50;;;1.80;73.50;;;;;;5111613;28;20105;-74
2023/04/02 00:25:41;;;;;;;11.03;3.57;;;1.80;73.70;;;;;;5107335;28;20049;-74
2023/04/02 00:28:19;;;;;;;12.10;3.83;;;1.80;73.70;;;;;;5096122;28;20046;-74
2023/04/02 00:30:57;;;;;;;11.70;4.20;;;1.70;73.60;;;;;;5112124;28;20066;-74
2023/04/02 00:33:27;;;;;;;7.50;3.50;;;1.70;73.60;;;;;;5110555;28;20058;-74
2023/04/02 00:35:54;;;;;;;8.87;3.80;;;1.70;73.60;;;;;;5110347;28;20401;-74
2023/04/02 00:38:29;;;;;;;11.57;4.10;;;1.60;73.60;;;;;;5096776;28;20127;-74
2023/04/02 00:40:59;;;;;;;8.80;3.80;;;1.60;73.70;;;;;;5108607;28;20051;-74
2023/04/02 00:43:31;;;;;;;10.90;3.93;;;1.60;73.70;;;;;;5111330;28;20047;-74
2023/04/02 00:46:02;;;;;;;10.63;4.00;;;1.50;73.70;;;;;;5111520;28;20416;-74
2023/04/02 00:48:40;;;;;;;6.95;2.55;;;1.50;73.60;;;;;;5095418;27;20267;-73
2023/04/02 00:51:18;;;;;;;7.87;3.30;;;1.50;73.60;;;;;;5106760;28;20517;-74
2023/04/02 00:53:46;;;;;;;13.13;4.10;;;1.50;73.70;;;;;;5102348;28;20035;-74
2023/04/02 00:56:20;;;;;;;13.47;3.97;;;1.40;73.60;;;;;;5101711;28;20515;-74
2023/04/02 00:58:52;;;;;;;10.70;3.23;;;1.40;73.70;;;;;;5108225;28;20066;-73
2023/04/02 01:01:21;;;;;;;7.78;3.67;;;1.40;73.60;;;;;;5107221;28;20039;-74
2023/04/02 01:04:01;;;;;;;11.07;3.40;;;1.40;73.50;;;;;;5110610;28;20047;-74
2023/04/02 01:06:33;;;;;;;6.60;3.03;;;1.30;73.60;;;;;;5098848;28;20464;-74
2023/04/02 01:09:52;;;;;;;11.83;3.30;;;1.30;73.70;;;;;;5090416;28;20679;-74
2023/04/02 01:12:42;;;;;;;10.57;3.60;;;1.20;73.40;;;;;;4999083;28;20046;-74
2023/04/02 01:15:10;;;;;;;9.40;3.67;;;1.20;73.40;;;;;;5027800;28;20049;-74
2023/04/02 01:17:57;;;;;;;6.70;2.63;;;1.20;73.40;;;;;;5064429;28;20054;-74
2023/04/02 01:20:44;;;;;;;10.23;3.10;;;1.20;73.30;;;;;;5130662;27;20043;-74
2023/04/02 01:23:23;;;;;;;9.03;3.30;;;1.20;73.40;;;;;;5112877;27;20504;-74
2023/04/02 01:25:56;;;;;;;9.43;3.40;;;1.10;73.40;;;;;;5122530;27;20083;-74
2023/04/02 01:28:49;;;;;;;7.27;2.87;;;1.10;73.40;;;;;;5094523;28;20042;-74
2023/04/02 01:31:15;;;;;;;7.10;2.80;;;1.10;73.40;;;;;;5099506;28;20618;-74
2023/04/02 01:33:41;;;;;;;10.77;3.50;;;1.00;73.30;;;;;;5110031;28;20054;-74
2023/04/02 01:36:21;;;;;;;7.93;2.80;;;1.00;73.30;;;;;;5104811;28;20052;-74
2023/04/02 01:39:09;;;;;;;6.85;2.20;;;1.00;73.50;;;;;;5105940;28;20457;-73
2023/04/02 01:42:09;;;;;;;9.57;2.93;;;1.00;73.30;;;;;;5092727;28;20040;-73
2023/04/02 01:44:47;;;;;;;7.40;2.73;;;1.00;73.30;;;;;;5116896;27;20485;-74
2023/04/02 01:47:16;;;;;;;10.13;3.30;;;1.00;73.30;;;;;;5114534;27;20130;-74
2023/04/02 01:49:43;;;;;;;8.40;2.80;;;0.90;73.40;;;;;;5131086;27;20142;-73
2023/04/02 01:52:16;;;;;;;8.37;2.70;;;0.80;73.40;;;;;;5129261;27;20140;-73
2023/04/02 01:54:41;;;;;;;10.20;2.87;;;0.80;73.40;;;;;;5130933;27;20070;-73
2023/04/02 01:57:08;;;;;;;9.03;2.93;;;0.80;73.40;;;;;;5117839;27;20070;-74
2023/04/02 01:59:34;;;;;;;10.30;2.83;;;0.80;73.40;;;;;;5130609;27;20335;-74
2023/04/02 02:02:11;;;;;;;8.43;3.00;;;0.80;73.40;;;;;;5131411;27;20051;-74
2023/04/02 02:04:37;;;;;;;11.57;2.70;;;0.80;73.30;;;;;;5128532;27;20508;-74
2023/04/02 02:07:04;;;;;;;6.47;2.60;;;0.80;73.30;;;;;;5115150;27;20039;-74
2023/04/02 02:09:34;;;;;;;8.00;2.63;;;0.80;73.20;;;;;;5130184;27;20401;-74
2023/04/02 02:12:01;;;;;;;9.87;2.83;;;0.80;73.20;;;;;;5111906;27;20047;-73
2023/04/02 02:14:29;;;;;;;7.73;2.87;;;0.80;72.90;;;;;;5130440;27;20051;-74
2023/04/02 02:17:00;;;;;;;8.93;2.90;;;0.80;73.10;;;;;;5092611;28;20088;-73
2023/04/02 02:19:29;;;;;;;7.60;2.80;;;0.70;72.90;;;;;;5109396;28;20044;-74
2023/04/02 02:22:05;;;;;;;9.50;2.60;;;0.80;72.80;;;;;;5108580;28;20039;-73
2023/04/02 02:24:34;;;;;;;12.03;2.83;;;0.60;72.90;;;;;;5111746;27;20417;-74
2023/04/02 02:27:00;;;;;;;6.97;2.33;;;0.60;72.90;;;;;;5115095;27;20070;-74
2023/04/02 02:29:29;;;;;;;6.27;2.17;;;0.60;72.80;;;;;;5129415;27;20474;-73
2023/04/02 02:31:56;;;;;;;6.57;2.23;;;0.60;72.80;;;;;;5112211;27;20031;-74
2023/04/02 02:34:32;;;;;;;9.47;2.27;;;0.60;72.70;;;;;;5129073;27;20051;-74
2023/04/02 02:37:22;;;;;;;10.80;2.63;;;0.60;73.00;;;;;;5114920;27;20078;-74
2023/04/02 02:39:53;;;;;;;9.53;2.13;;;0.50;72.90;;;;;;5127301;27;20039;-73
2023/04/02 02:42:26;;;;;;;8.80;2.30;;;0.50;72.90;;;;;;5129438;27;20497;-73
2023/04/02 02:44:55;;;;;;;11.63;2.20;;;0.50;72.90;;;;;;5129758;27;20512;-74
2023/04/02 02:47:40;;;;;;;6.43;2.10;;;0.50;72.80;;;;;;5113743;27;20444;-73
2023/04/02 02:50:12;;;;;;;7.33;2.10;;;0.50;72.60;;;;;;5112494;28;20082;-73
2023/04/02 02:52:43;;;;;;;6.10;2.47;;;0.50;72.60;;;;;;5121893;27;20047;-74
2023/04/02 02:55:18;;;;;;;9.23;1.38;;;0.50;72.80;;;;;;5130073;27;20096;-73
2023/04/02 02:57:49;;;;;;;8.23;2.30;;;0.40;72.70;;;;;;5114504;27;20047;-73
2023/04/02 03:00:18;;;;;;;6.90;2.53;;;0.40;72.90;;;;;;5111591;28;20043;-73
2023/04/02 03:02:45;;;;;;;7.67;2.10;;;0.40;73.00;;;;;;5111344;28;20054;-73
2023/04/02 03:05:16;;;;;;;8.37;2.37;;;0.30;73.20;;;;;;5128530;28;20078;-73
2023/04/02 03:07:43;;;;;;;5.80;2.17;;;0.30;73.30;;;;;;5095301;28;20439;-73
2023/04/02 03:10:12;;;;;;;7.83;2.40;;;0.30;73.30;;;;;;5129859;28;20424;-73
2023/04/02 03:12:56;;;;;;;10.20;2.20;;;0.30;73.40;;;;;;5110690;28;20416;-73
2023/04/02 03:15:30;;;;;;;7.87;2.20;;;0.30;73.40;;;;;;5128749;28;20512;-73
2023/04/02 03:18:37;;;;;;;5.27;2.17;;;0.30;73.40;;;;;;5104941;28;20047;-74
2023/04/02 03:21:16;;;;;;;8.30;2.40;;;0.30;73.40;;;;;;5051872;28;20051;-73
2023/04/02 03:23:47;;;;;;;7.93;2.40;;;0.30;73.50;;;;;;5109398;28;20116;-74
2023/04/02 03:26:24;;;;;;;7.50;2.22;;;0.20;73.50;;;;;;5099766;28;20054;-74
2023/04/02 03:28:57;;;;;;;10.33;2.57;;;0.20;73.60;;;;;;5068873;28;20044;-73
2023/04/02 03:31:30;;;;;;;10.43;2.70;;;0.20;73.60;;;;;;5108890;28;20263;-74
2023/04/02 03:33:58;;;;;;;7.73;2.80;;;0.20;73.60;;;;;;5104873;28;20099;-73
2023/04/02 03:36:31;;;;;;;9.53;2.57;;;0.20;73.60;;;;;;5100351;28;20039;-74
2023/04/02 03:39:24;;;;;;;12.07;2.10;;;0.20;73.70;;;;;;5111523;28;20035;-73
2023/04/02 03:41:55;;;;;;;9.57;2.33;;;0.20;73.60;;;;;;5087219;28;20562;-74
2023/04/02 03:44:45;;;;;;;7.38;2.00;;;0.20;73.70;;;;;;5112809;28;20473;-73
2023/04/02 03:47:36;;;;;;;10.13;2.27;;;0.20;73.70;;;;;;5096452;28;20082;-73
2023/04/02 03:50:05;;;;;;;8.75;2.40;;;0.20;73.70;;;;;;5094681;28;20071;-74
2023/04/02 03:52:35;;;;;;;7.57;2.50;;;0.10;73.70;;;;;;5111999;28;20055;-74
2023/04/02 03:55:08;;;;;;;8.60;1.80;;;0.10;73.80;;;;;;5111795;28;20043;-73
2023/04/02 03:57:41;;;;;;;7.97;2.53;;;0.00;73.80;;;;;;5096448;28;20404;-73
2023/04/02 04:00:15;;;;;;;9.97;2.17;;;0.10;73.90;;;;;;5112603;28;20492;-74
2023/04/02 04:03:09;;;;;;;6.30;2.40;;;0.10;73.90;;;;;;5111994;27;20043;-73
2023/04/02 04:05:38;;;;;;;11.47;3.07;;;0.00;74.00;;;;;;5111827;28;20666;-73
2023/04/02 04:08:11;;;;;;;9.93;2.83;;;0.00;74.00;;;;;;5096110;28;20038;-73
2023/04/02 04:10:37;;;;;;;8.27;2.00;;;0.00;74.10;;;;;;5112186;28;20044;-74
2023/04/02 04:13:16;;;;;;;6.87;2.03;;;0.00;74.10;;;;;;5093763;28;20052;-73
2023/04/02 04:15:58;;;;;;;9.17;2.20;;;0.00;74.20;;;;;;5112650;28;20035;-73
2023/04/02 04:18:39;;;;;;;11.93;2.17;;;0.00;74.20;;;;;;5095880;28;20273;-74
2023/04/02 04:21:36;;;;;;;8.50;1.80;;;0.00;74.30;;;;;;5112167;28;20039;-74
2023/04/02 04:24:12;;;;;;;7.30;1.70;;;0.00;74.30;;;;;;5110042;28;20048;-73
2023/04/02 04:27:11;;;;;;;13.33;2.30;;;-0.10;74.30;;;;;;5086274;28;20584;-73
2023/04/02 04:29:55;;;;;;;9.90;2.57;;;-0.10;74.30;;;;;;5109976;28;20066;-74
2023/04/02 04:32:31;;;;;;;8.97;1.97;;;-0.10;74.30;;;;;;5106416;27;20096;-73
2023/04/02 04:35:21;;;;;;;7.30;2.30;;;-0.10;74.30;;;;;;5131003;27;20638;-74
2023/04/02 04:37:52;;;;;;;8.23;2.17;;;-0.10;74.20;;;;;;5116205;27;20059;-74
2023/04/02 04:40:24;;;;;;;8.32;1.67;;;-0.10;74.30;;;;;;5104642;28;20071;-74
2023/04/02 04:42:54;;;;;;;8.07;2.00;;;-0.10;74.20;;;;;;5126850;27;20050;-73
2023/04/02 04:45:28;;;;;;;9.23;2.10;;;-0.10;74.30;;;;;;5131247;27;20039;-73
2023/04/02 04:47:59;;;;;;;9.27;2.03;;;-0.10;74.30;;;;;;5115547;27;20043;-73
2023/04/02 04:50:37;;;;;;;9.65;1.83;;;-0.10;74.30;;;;;;5109266;27;20488;-74
2023/04/02 04:53:24;;;;;;;12.60;2.30;;;-0.10;74.30;;;;;;5131278;27;20047;-73
2023/04/02 04:56:04;;;;;;;6.87;2.30;;;-0.10;74.40;;;;;;5131731;27;20050;-73
2023/04/02 04:58:40;;;;;;;5.03;2.03;;;-0.20;74.30;;;;;;5086937;28;20052;-74
2023/04/02 05:01:17;;;;;;;8.93;1.73;;;-0.20;74.30;;;;;;5111683;28;20051;-74
2023/04/02 05:04:20;;;;;;;11.00;2.00;;;-0.20;74.40;;;;;;5095449;28;20043;-73
2023/04/02 05:07:18;;;;;;;6.70;1.93;;;-0.20;74.40;;;;;;5077996;28;20050;-74
2023/04/02 05:10:15;;;;;;;4.90;1.90;;;-0.20;74.40;;;;;;5111635;27;20058;-74
2023/04/02 05:12:55;;;;;;;13.60;2.27;;;-0.20;74.30;;;;;;5131035;27;20120;-73
2023/04/02 05:15:40;;;;;;;7.50;2.08;;;-0.20;74.40;;;;;;5117663;27;20135;-73
2023/04/02 05:18:30;;;;;;;13.27;2.07;;;-0.20;74.40;;;;;;5112138;27;20433;-73
2023/04/02 05:21:07;;;;;;;4.87;1.70;;;-0.20;74.40;;;;;;5131301;27;20393;-73
2023/04/02 05:24:02;;;;;;;8.50;2.10;;;-0.20;74.50;;;;;;5131232;27;20096;-74
2023/04/02 05:26:42;;;;;;;8.60;1.93;;;-0.30;74.50;;;;;;5101211;27;20558;-74
2023/04/02 05:29:21;;;;;;;10.07;2.30;;;-0.20;74.60;;;;;;5118416;27;20054;-74
2023/04/02 05:31:54;;;;;;;11.37;1.73;;;-0.20;74.60;;;;;;5124450;27;20053;-73
2023/04/02 05:34:28;;;;;;;13.73;2.73;;;-0.10;74.60;;;;;;5130536;27;20047;-74
2023/04/02 05:36:54;;;;;;;7.40;2.30;;;-0.10;74.70;;;;;;5096932;27;20110;-73
2023/04/02 05:39:25;;;;;;;7.77;1.73;;;-0.10;74.70;;;;;;5130526;27;20071;-74
2023/04/02 05:41:59;;;;;;;5.78;1.48;;;0.00;74.70;;;;;;5095289;28;20039;-73
2023/04/02 05:44:29;;;;;;;9.83;2.43;;;0.00;74.60;;;;;;5121128;27;20051;-73
2023/04/02 05:46:59;;;;;;;7.47;2.50;;;0.00;74.70;;;;;;5115335;27;20043;-74
2023/04/02 05:49:49;;;;;;;7.03;1.90;;;0.00;74.70;;;;;;5123318;27;20053;-73
2023/04/02 05:52:22;;;;;;;13.17;2.77;;;0.20;74.70;;;;;;5129737;27;20642;-74
2023/04/02 05:54:55;;;;;;;9.37;2.17;;;0.30;74.70;;;;;;5130655;27;20494;-74
2023/04/02 05:57:30;;;;;;;9.97;2.07;;;0.40;74.70;;;;;;5113908;27;20051;-74
2023/04/02 05:59:59;;;;;;;7.17;2.10;;;0.50;74.80;;;;;;5130999;27;20043;-74
2023/04/02 06:02:35;;;;;;;6.90;1.97;;;0.60;74.70;;;;;;5130517;27;20047;-74
2023/04/02 06:05:14;;;;;;;8.20;2.03;;;0.80;75.00;;;;;;5083508;27;20168;-74
2023/04/02 06:08:10;;;;;;;6.90;2.20;;;1.00;74.90;;;;;;5114742;27;20438;-74
2023/04/02 06:10:55;;;;;;;6.37;1.53;;;1.10;75.00;;;;;;5131002;27;20039;-73
2023/04/02 06:13:22;;;;;;;7.80;2.00;;;1.40;74.80;;;;;;5111271;27;20109;-74
2023/04/02 06:15:48;;;;;;;12.77;2.20;;;1.50;74.70;;;;;;5130496;27;20047;-74
2023/04/02 06:18:23;;;;;;;8.53;2.13;;;1.70;74.60;;;;;;5114408;27;20066;-74
2023/04/02 06:20:48;;;;;;;9.37;2.10;;;1.90;74.50;;;;;;5129813;27;20051;-74
2023/04/02 06:24:04;;;;;;;8.93;1.73;;;2.00;73.80;;;;;;5111334;27;20508;-74
2023/04/02 06:26:38;;;;;;;3.67;1.50;;;2.20;73.40;;;;;;5012525;28;20048;-74
2023/04/02 06:29:10;;;;;;;9.17;1.90;;;2.40;73.00;;;;;;5042561;28;20048;-74
2023/04/02 06:31:51;;;;;;;6.40;1.80;;;2.50;73.00;;;;;;5081662;28;20056;-74
2023/04/02 06:34:22;;;;;;;5.38;1.38;;;2.50;72.40;;;;;;5090868;28;20047;-74
2023/04/02 06:36:50;;;;;;;7.00;1.70;;;2.50;72.80;;;;;;5095154;28;20039;-74
2023/04/02 06:39:21;;;;;;;6.83;1.87;;;2.50;73.00;;;;;;5106502;28;20055;-74
2023/04/02 06:42:28;;;;;;;4.20;1.37;;;2.60;73.30;;;;;;5109880;28;20104;-74
2023/04/02 06:44:54;;;;;;;8.10;1.50;;;2.50;72.30;;;;;;5005942;28;20077;-74
2023/04/02 06:47:35;;;;;;;4.63;1.60;;;2.70;73.10;;;;;;4990944;28;20096;-74
2023/04/02 06:50:06;;;;;;;6.37;1.50;;;2.70;73.30;;;;;;5078299;27;20055;-73
2023/04/02 06:52:55;;;;;;;7.43;1.73;;;2.70;72.90;;;;;;5121089;27;20043;-74
2023/04/02 06:55:41;;;;;;;5.80;1.60;;;2.80;73.20;;;;;;5101472;28;20428;-74
2023/04/02 06:58:08;;;;;;;5.90;1.43;;;2.80;73.10;;;;;;5096431;28;20103;-74
2023/04/02 07:00:44;;;;;;;5.30;1.50;;;2.90;72.80;;;;;;5128232;27;20549;-74
2023/04/02 07:03:20;;;;;;;5.97;1.67;;;2.90;73.00;;;;;;5121752;28;20046;-74
2023/04/02 07:05:46;;;;;;;6.70;1.50;;;3.10;72.50;;;;;;5118516;27;20063;-74
2023/04/02 07:08:12;;;;;;;7.27;1.27;;;3.20;72.60;;;;;;5099560;27;20509;-74
2023/04/02 07:10:37;;;;;;;8.43;1.80;;;3.30;71.60;;;;;;5131690;27;20358;-74
2023/04/02 07:13:04;;;;;;;4.73;1.23;;;3.20;71.50;;;;;;5117775;27;20572;-74
2023/04/02 07:15:30;;;;;;;6.57;1.37;;;3.30;71.70;;;;;;5133207;27;20296;-74
2023/04/02 07:17:58;;;;;;;6.60;1.40;;;3.50;71.50;;;;;;5113956;27;20051;-74
2023/04/02 07:20:23;;;;;;;5.17;1.30;;;3.50;72.00;;;;;;5133734;27;20046;-74
2023/04/02 07:22:49;;;;;;;3.67;1.43;;;3.50;71.10;;;;;;5132973;27;20047;-74
2023/04/02 07:25:15;;;;;;;4.03;1.30;;;3.50;71.60;;;;;;5133325;27;20035;-74
2023/04/02 07:27:41;;;;;;;7.27;1.27;;;3.50;71.70;;;;;;5098160;27;20043;-73
2023/04/02 07:30:07;;;;;;;8.67;1.23;;;3.60;70.70;;;;;;5132450;27;20059;-74
2023/04/02 07:32:32;;;;;;;7.37;1.30;;;3.50;70.30;;;;;;5112375;27;20040;-74
2023/04/02 07:34:58;;;;;;;8.10;1.60;;;3.60;70.80;;;;;;5132650;27;20138;-75
2023/04/02 07:37:24;;;;;;;8.27;1.77;;;3.60;70.40;;;;;;5117375;27;20035;-74
2023/04/02 07:39:49;;;;;;;7.17;1.23;;;3.70;70.40;;;;;;5131267;27;20051;-74
2023/04/02 07:42:15;;;;;;;4.40;1.00;;;3.80;70.30;;;;;;5132757;27;20047;-74
2023/04/02 07:44:41;;;;;;;7.60;1.23;;;3.90;70.00;;;;;;5132746;27;20477;-73
2023/04/02 07:47:09;;;;;;;5.63;1.27;;;3.90;69.70;;;;;;5116224;27;20047;-74
2023/04/02 07:49:34;;;;;;;3.97;1.13;;;4.20;69.10;;;;;;5132087;27;20039;-74
2023/04/02 07:52:00;;;;;;;6.87;1.00;;;4.10;68.90;;;;;;5132779;27;20088;-74
2023/04/02 07:54:26;;;;;;;7.23;1.73;;;4.10;68.90;;;;;;5132494;27;20099;-74
2023/04/02 07:56:52;;;;;;;6.43;1.20;;;4.10;69.00;;;;;;5117357;27;20043;-74
2023/04/02 07:59:17;;;;;;;4.87;1.33;;;4.00;69.00;;;;;;5132315;27;20031;-74
2023/04/02 08:01:43;;;;;;;7.47;1.57;;;4.00;69.10;;;;;;5109681;27;20052;-74
2023/04/02 08:04:17;;;;;;;5.60;1.10;;;3.90;68.60;;;;;;5113286;27;20489;-74
2023/04/02 08:06:42;;;;;;;3.37;1.30;;;3.90;68.20;;;;;;5118628;27;20058;-74
2023/04/02 08:09:08;;;;;;;5.93;1.43;;;3.70;68.00;;;;;;5132020;27;20435;-74
2023/04/02 08:11:34;;;;;;;5.00;1.20;;;3.70;68.60;;;;;;5132192;27;20043;-73
2023/04/02 08:14:00;;;;;;;5.07;1.13;;;3.70;68.50;;;;;;5132133;27;20054;-74
2023/04/02 08:16:26;;;;;;;6.23;1.43;;;3.90;68.70;;;;;;5114907;27;20465;-74
2023/04/02 08:18:52;;;;;;;5.83;1.20;;;4.00;68.30;;;;;;5128884;27;20051;-74
2023/04/02 08:21:18;;;;;;;4.87;1.20;;;4.20;68.30;;;;;;5132928;27;20039;-74
2023/04/02 08:23:44;;;;;;;7.30;1.30;;;4.60;68.20;;;;;;5131891;27;20168;-74
2023/04/02 08:26:16;;;;;;;5.23;1.10;;;4.60;67.30;;;;;;5123895;27;20493;-74
2023/04/02 08:28:42;;;;;;;5.40;1.40;;;4.50;67.50;;;;;;5125609;27;20511;-75
2023/04/02 08:31:07;;;;;;;7.63;1.53;;;4.40;67.60;;;;;;5103181;28;20052;-74
2023/04/02 08:33:33;;;;;;;3.67;1.20;;;4.30;67.70;;;;;;5125732;27;20370;-74
2023/04/02 08:35:59;;;;;;;7.20;1.37;;;4.40;68.60;;;;;;5109104;28;20056;-74
2023/04/02 08:38:25;;;;;;;5.57;1.40;;;4.50;68.20;;;;;;5101489;27;20044;-74
2023/04/02 08:40:55;;;;;;;5.00;1.33;;;4.80;68.20;;;;;;5119984;27;20036;-74
2023/04/02 08:43:29;;;;;;;5.13;1.07;;;5.10;68.20;;;;;;5114808;27;20043;-74
2023/04/02 08:46:04;;;;;;;6.77;1.47;;;5.70;68.00;;;;;;5115054;27;20051;-75
2023/04/02 08:48:32;;;;;;;7.43;1.43;;;6.00;66.90;;;;;;5083816;27;20044;-75
2023/04/02 08:50:59;;;;;;;5.77;1.00;;;6.20;67.10;;;;;;5131694;27;20122;-75
2023/04/02 08:53:29;;;;;;;1.93;0.90;;;6.40;66.90;;;;;;5128472;27;20055;-75
2023/04/02 08:56:19;;;;;;;6.13;1.05;;;6.80;66.20;;;;;;5130598;27;20156;-74
2023/04/02 08:58:52;;;;;;;6.50;1.57;;;6.80;64.80;;;;;;5119591;27;20046;-74
2023/04/02 09:01:30;;;;;;;3.50;1.07;;;6.50;66.30;;;;;;5117860;27;20138;-75
2023/04/02 09:03:57;;;;;;;3.70;1.00;;;6.40;66.20;;;;;;5105400;27;20452;-75
2023/04/02 09:06:24;;;;;;;4.50;1.30;;;6.20;66.70;;;;;;5094073;28;20035;-75
2023/04/02 09:08:51;;;;;;;6.50;1.50;;;6.00;66.20;;;;;;5108561;27;20051;-75
2023/04/02 09:11:20;;;;;;;4.23;1.20;;;5.90;66.70;;;;;;5098263;27;20059;-74
2023/04/02 09:13:51;;;;;;;4.07;1.37;;;6.10;66.80;;;;;;5128857;27;20088;-75
2023/04/02 09:16:21;;;;;;;5.65;1.13;;;6.40;66.10;;;;;;5104819;27;20043;-75
2023/04/02 09:18:50;;;;;;;6.30;0.90;;;6.50;65.70;;;;;;5119856;27;20050;-75
2023/04/02 09:21:40;;;;;;;4.40;0.90;;;6.30;65.70;;;;;;5114035;27;20491;-75
2023/04/02 09:24:09;;;;;;;6.77;1.03;;;6.10;64.80;;;;;;5116908;27;20416;-75
2023/04/02 09:26:35;;;;;;;2.10;0.77;;;6.00;65.80;;;;;;5088547;27;20058;-75
2023/04/02 09:29:01;;;;;;;5.17;1.20;;;5.80;65.40;;;;;;5107158;27;20436;-75
2023/04/02 09:31:43;;;;;;;4.93;0.80;;;5.80;65.40;;;;;;5102933;28;20052;-75
2023/04/02 09:34:29;;;;;;;5.70;0.97;;;6.40;65.50;;;;;;5089736;28;20040;-75
2023/04/02 09:36:55;;;;;;;6.33;1.20;;;6.70;64.20;;;;;;5110593;27;20067;-75
2023/04/02 09:39:25;;;;;;;3.10;1.03;;;6.60;64.90;;;;;;5124365;27;20053;-74
2023/04/02 09:41:51;;;;;;;3.07;0.80;;;6.50;65.10;;;;;;5115390;27;20603;-75
2023/04/02 09:44:20;;;;;;;3.87;0.80;;;6.40;65.20;;;;;;5109911;27;20052;-75
2023/04/02 09:46:58;;;;;;;3.73;0.83;;;6.40;65.60;;;;;;5102949;27;20413;-75
2023/04/02 09:49:33;;;;;;;4.33;0.90;;;6.40;65.60;;;;;;5106217;27;20495;-75
2023/04/02 09:52:24;;;;;;;3.83;0.93;;;6.50;65.80;;;;;;5081258;27;20427;-75
2023/04/02 09:55:18;;;;;;;3.43;1.00;;;6.40;64.40;;;;;;5092183;28;20075;-75
2023/04/02 09:57:46;;;;;;;2.60;0.90;;;6.30;64.60;;;;;;5095960;27;20127;-74
2023/04/02 10:00:26;;;;;;;4.40;0.83;;;6.30;65.00;;;;;;5130903;27;20118;-74
2023/04/02 10:03:22;;;;;;;4.43;0.87;;;6.30;64.20;;;;;;5109408;27;20405;-75
2023/04/02 10:05:48;;;;;;;2.60;0.80;;;6.50;65.20;;;;;;5091396;27;20117;-75
2023/04/02 10:08:19;;;;;;;5.10;0.93;;;6.70;64.90;;;;;;5098436;27;20071;-74
2023/04/02 10:10:51;;;;;;;3.58;0.73;;;6.80;64.50;;;;;;5094309;28;20389;-75
2023/04/02 10:13:30;;;;;;;4.57;0.90;;;7.40;64.70;;;;;;5113332;27;20038;-75
2023/04/02 10:16:13;;;;;;;4.20;0.77;;;8.30;63.60;;;;;;5102723;28;20047;-75
2023/04/02 10:18:45;;;;;;;3.57;0.77;;;8.80;63.10;;;;;;5086912;28;20062;-75
2023/04/02 10:21:17;;;;;;;3.27;0.80;;;8.90;62.70;;;;;;5087480;28;20055;-75
2023/04/02 10:23:42;;;;;;;;;;;9.20;62.20;;;;;;5108188;28;20062;-74
2023/04/02 10:26:34;;;;;;;4.23;0.70;;;9.50;59.30;;;;;;5106684;28;19920;-75
2023/04/02 10:29:09;;;;;;;3.47;1.02;;;9.80;61.80;;;;;;5095712;28;20392;-75
2023/04/02 10:31:52;;;;;;;3.83;0.80;;;9.60;60.20;;;;;;5099009;28;20051;-75
2023/04/02 10:34:29;;;;;;;5.50;0.80;;;9.40;61.30;;;;;;5115192;27;20515;-75
2023/04/02 10:37:04;;;;;;;3.07;0.60;;;9.20;62.10;;;;;;5078321;28;20040;-75
2023/04/02 10:39:46;;;;;;;3.53;0.70;;;9.30;61.30;;;;;;5104339;27;20039;-75
2023/04/02 10:42:30;;;;;;;5.03;0.70;;;9.40;61.40;;;;;;5124685;27;20115;-75
2023/04/02 10:45:13;;;;;;;2.83;0.70;;;9.60;61.90;;;;;;5107783;28;20043;-76
2023/04/02 10:47:49;;;;;;;4.93;0.70;;;9.70;59.80;;;;;;5092935;28;20051;-75
2023/04/02 10:50:53;;;;;;;2.67;0.70;;;9.50;59.70;;;;;;5108969;28;20039;-74
2023/04/02 10:53:22;;;;;;;1.00;0.40;;;9.20;60.70;;;;;;5104400;28;20134;-75
2023/04/02 10:55:53;;;;;;;3.67;0.60;;;9.40;61.80;;;;;;5101900;28;20058;-75
2023/04/02 10:58:25;;;;;;;4.57;0.70;;;9.40;60.90;;;;;;5093236;28;20142;-75
2023/04/02 11:00:53;;;;;;;;;;;9.70;61.40;;;;;;5092196;28;20104;-74
2023/04/02 11:03:47;;;;;;;5.43;0.80;;;10.30;59.00;;;;;;5104948;28;19924;-75
2023/04/02 11:06:39;;;;;;;1.93;0.70;;;10.30;58.60;;;;;;5081801;28;20047;-75
2023/04/02 11:09:12;;;;;;;2.63;0.60;;;10.00;58.10;;;;;;5093277;28;20039;-74
2023/04/02 11:11:42;;;;;;;2.63;0.60;;;9.80;61.30;;;;;;5128859;28;20759;-74
2023/04/02 11:14:26;;;;;;;3.70;0.70;;;10.30;61.00;;;;;;5094055;28;20042;-75
2023/04/02 11:16:54;;;;;;;2.97;0.83;;;10.20;59.40;;;;;;5075893;28;20164;-75
2023/04/02 11:19:24;;;;;;;2.50;0.57;;;9.60;60.60;;;;;;5108673;28;20181;-74
2023/04/02 11:22:17;;;;;;;4.07;0.83;;;9.30;61.10;;;;;;5109142;28;20058;-75
2023/04/02 11:24:46;;;;;;;3.47;0.87;;;9.40;60.70;;;;;;5107957;28;20040;-74
2023/04/02 11:27:31;;;;;;;4.83;0.60;;;9.60;61.90;;;;;;5075341;27;20437;-74
2023/04/02 11:30:15;;;;;;;3.20;0.70;;;10.00;60.30;;;;;;5109430;28;20059;-75
2023/04/02 11:32:42;;;;;;;6.00;0.70;;;10.00;60.20;;;;;;5102860;28;20052;-75
2023/04/02 11:35:30;;;;;;;2.90;0.57;;;10.50;60.80;;;;;;5109090;28;20075;-75
2023/04/02 11:37:58;;;;;;;2.67;0.37;;;11.00;59.20;;;;;;5093334;28;20047;-75
2023/04/02 11:40:43;;;;;;;2.17;0.60;;;11.30;60.00;;;;;;5097489;28;20334;-75
2023/04/02 11:43:34;;;;;;;4.67;0.80;;;11.30;60.00;;;;;;5105641;27;20082;-74
2023/04/02 11:46:15;;;;;;;4.82;0.80;;;11.00;58.10;;;;;;5108799;28;20489;-75
2023/04/02 11:48:42;;;;;;;2.30;0.50;;;10.50;59.50;;;;;;5104106;27;20064;-74
2023/04/02 11:51:19;;;;;;;3.47;0.60;;;10.10;60.30;;;;;;5102983;28;20040;-75
2023/04/02 11:53:46;;;;;;;3.03;0.70;;;10.00;59.00;;;;;;5098564;28;20044;-75
2023/04/02 11:56:24;;;;;;;2.67;0.63;;;10.20;60.50;;;;;;5103743;28;20048;-75
2023/04/02 11:59:09;;;;;;;5.03;0.77;;;10.10;59.80;;;;;;5109405;28;20803;-75
2023/04/02 12:02:00;;;;;;;5.33;0.70;;;10.30;60.10;;;;;;5112481;28;20136;-75
2023/04/02 12:04:25;;;;;;;4.95;0.63;;;10.60;59.80;;;;;;5125686;27;20058;-74
2023/04/02 12:06:54;;;;;;;4.27;0.60;;;10.60;59.30;;;;;;5117798;27;20070;-74
2023/04/02 12:09:28;;;;;;;3.57;0.70;;;10.20;59.70;;;;;;5132867;27;20035;-75
2023/04/02 12:12:15;;;;;;;4.93;0.50;;;9.90;60.00;;;;;;5132688;27;20434;-75
2023/04/02 12:14:49;;;;;;;3.50;0.70;;;9.80;59.70;;;;;;5114408;27;20051;-74
2023/04/02 12:17:34;;;;;;;3.27;0.70;;;9.80;60.30;;;;;;5116417;27;20031;-75
2023/04/02 12:20:08;;;;;;;3.63;0.70;;;9.70;59.30;;;;;;5132492;27;20047;-74
2023/04/02 12:22:47;;;;;;;2.13;0.63;;;9.40;59.60;;;;;;5132370;27;20051;-74
2023/04/02 12:25:28;;;;;;;4.30;0.40;;;9.50;58.70;;;;;;5114526;27;20366;-74
2023/04/02 12:28:27;;;;;;;2.13;0.73;;;9.40;59.40;;;;;;5085072;27;20078;-74
2023/04/02 12:31:07;;;;;;;1.63;0.50;;;9.20;59.10;;;;;;5113318;27;20112;-75
2023/04/02 12:33:36;;;;;;;2.00;0.47;;;9.20;59.90;;;;;;5120699;27;20129;-74
2023/04/02 12:36:13;;;;;;;2.03;0.50;;;9.50;60.20;;;;;;5097360;27;20059;-75
2023/04/02 12:38:47;;;;;;;4.03;0.80;;;9.80;59.30;;;;;;5108731;27;20070;-74
2023/04/02 12:41:28;;;;;;;5.30;0.47;;;10.00;59.10;;;;;;5129825;27;20408;-75
2023/04/02 12:44:17;;;;;;;;;;;9.60;59.20;;;;;;5132762;27;20047;-75
2023/04/02 12:46:44;;;;;;;3.50;0.77;;;9.60;57.80;;;;;;5116553;27;19923;-75
2023/04/02 12:49:31;;;;;;;3.63;0.53;;;9.70;59.90;;;;;;5112890;27;20035;-74
2023/04/02 12:51:57;;;;;;;2.90;0.50;;;9.60;59.40;;;;;;5128292;27;20086;-74
2023/04/02 12:54:23;;;;;;;3.77;0.60;;;9.40;60.00;;;;;;5131785;27;20063;-75
2023/04/02 12:56:50;;;;;;;2.57;0.60;;;9.20;60.10;;;;;;5116195;27;20066;-75
2023/04/02 12:59:35;;;;;;;5.80;0.47;;;9.10;60.70;;;;;;5132037;27;20035;-74
2023/04/02 13:02:21;;;;;;;3.33;0.60;;;8.90;59.50;;;;;;5132118;27;20070;-75
2023/04/02 13:04:53;;;;;;;3.50;0.70;;;8.80;60.40;;;;;;5131207;27;20514;-74
2023/04/02 13:07:20;;;;;;;;;;;8.60;60.70;;;;;;5098162;27;20559;-74
2023/04/02 13:09:49;;;;;;;2.37;0.70;;;8.60;59.90;;;;;;5112264;27;20369;-74
2023/04/02 13:12:37;;;;;;;1.90;0.50;;;8.70;61.60;;;;;;5130544;27;20054;-74
2023/04/02 13:15:06;;;;;;;1.43;0.50;;;8.80;60.50;;;;;;5131854;27;20047;-75
2023/04/02 13:17:45;;;;;;;5.50;0.87;;;8.80;60.80;;;;;;5115279;27;20178;-74
2023/04/02 13:20:41;;;;;;;3.43;0.90;;;8.80;60.50;;;;;;5096708;27;20114;-74
2023/04/02 13:23:26;;;;;;;3.40;0.40;;;8.90;60.70;;;;;;5109722;27;20110;-74
2023/04/02 13:25:52;;;;;;;4.30;0.80;;;8.70;60.60;;;;;;5130160;27;20502;-74
2023/04/02 13:28:18;;;;;;;3.57;0.60;;;8.50;60.60;;;;;;5101468;27;20047;-74
2023/04/02 13:30:45;;;;;;;3.13;0.87;;;8.40;61.00;;;;;;5128277;27;20047;-74
2023/04/02 13:33:11;;;;;;;5.37;0.50;;;8.50;61.60;;;;;;5125901;27;20079;-74
2023/04/02 13:35:37;;;;;;;3.13;0.67;;;8.50;61.50;;;;;;5131138;27;20042;-75